sensor_id;sensor_type;location;lat;lon;timestamp;P1;durP1;ratioP1;P2;durP2;ratioP2
32976;SDS011;67408;50.842;4.450;2023-02-15T14:13:38;16.88;;;10.80;;
32976;SDS011;67408;50.842;4.450;2023-02-15T14:16:10;16.85;;;10.98;;
32976;SDS011;67408;50.842;4.450;2023-02-15T14:18:47;18.73;;;11.45;;
32976;SDS011;67408;50.842;4.450;2023-02-15T14:21:31;15.85;;;11.60;;
32976;SDS011;67408;50.842;4.450;2023-02-15T14:27:27;16.63;;;11.57;;
32976;SDS011;67408;50.842;4.450;2023-02-15T14:30:20;18.15;;;11.90;;
32976;SDS011;67408;50.842;4.450;2023-02-15T14:32:49;22.77;;;13.07;;
32976;SDS011;67408;50.842;4.450;2023-02-15T14:35:29;20.73;;;13.70;;
32976;SDS011;67408;50.842;4.450;2023-02-15T14:41:04;16.48;;;11.73;;
32976;SDS011;67408;50.842;4.450;2023-02-15T14:46:14;17.90;;;11.88;;
32976;SDS011;67408;50.842;4.450;2023-02-15T14:48:50;17.35;;;12.07;;
32976;SDS011;67408;50.842;4.450;2023-02-15T14:54:11;16.75;;;11.88;;
32976;SDS011;67408;50.842;4.450;2023-02-15T15:05:17;17.25;;;11.35;;
32976;SDS011;67408;50.842;4.450;2023-02-15T15:23:28;17.08;;;11.30;;
32976;SDS011;67408;50.842;4.450;2023-02-15T15:26:20;18.70;;;12.02;;
32976;SDS011;67408;50.842;4.450;2023-02-15T15:42:44;19.92;;;12.68;;
32976;SDS011;67408;50.842;4.450;2023-02-15T15:50:59;22.83;;;13.52;;
32976;SDS011;67408;50.842;4.450;2023-02-15T15:53:28;19.25;;;12.77;;
32976;SDS011;67408;50.842;4.450;2023-02-15T15:56:04;19.63;;;13.23;;
32976;SDS011;67408;50.842;4.450;2023-02-15T15:58:32;24.58;;;13.13;;
32976;SDS011;67408;50.842;4.450;2023-02-15T16:01:04;21.95;;;13.95;;
32976;SDS011;67408;50.842;4.450;2023-02-15T16:03:48;22.92;;;13.73;;
32976;SDS011;67408;50.842;4.450;2023-02-15T16:09:20;25.35;;;14.15;;
32976;SDS011;67408;50.842;4.450;2023-02-15T16:11:52;26.95;;;14.32;;
32976;SDS011;67408;50.842;4.450;2023-02-15T16:17:03;23.90;;;14.07;;
32976;SDS011;67408;50.842;4.450;2023-02-15T16:19:34;20.58;;;14.15;;
32976;SDS011;67408;50.842;4.450;2023-02-15T16:22:03;24.30;;;14.57;;
32976;SDS011;67408;50.842;4.450;2023-02-15T16:27:42;25.25;;;14.63;;
32976;SDS011;67408;50.842;4.450;2023-02-15T16:30:19;25.02;;;14.35;;
32976;SDS011;67408;50.842;4.450;2023-02-15T16:33:06;26.70;;;13.82;;
32976;SDS011;67408;50.842;4.450;2023-02-15T16:35:34;38.50;;;16.60;;
32976;SDS011;67408;50.842;4.450;2023-02-15T16:38:02;33.15;;;15.75;;
32976;SDS011;67408;50.842;4.450;2023-02-15T16:43:22;25.42;;;15.50;;
32976;SDS011;67408;50.842;4.450;2023-02-15T16:45:51;29.45;;;15.60;;
32976;SDS011;67408;50.842;4.450;2023-02-15T16:48:23;23.38;;;14.90;;
32976;SDS011;67408;50.842;4.450;2023-02-15T16:50:51;25.25;;;14.98;;
32976;SDS011;67408;50.842;4.450;2023-02-15T16:53:21;23.35;;;14.38;;
32976;SDS011;67408;50.842;4.450;2023-02-15T16:55:57;27.65;;;16.33;;
32976;SDS011;67408;50.842;4.450;2023-02-15T16:58:27;22.45;;;15.63;;
32976;SDS011;67408;50.842;4.450;2023-02-15T17:03:32;24.10;;;15.68;;
32976;SDS011;67408;50.842;4.450;2023-02-15T17:05:58;24.98;;;15.52;;
32976;SDS011;67408;50.842;4.450;2023-02-15T17:08:27;23.98;;;14.77;;
32976;SDS011;67408;50.842;4.450;2023-02-15T17:16:34;23.80;;;15.30;;
32976;SDS011;67408;50.842;4.450;2023-02-15T17:19:17;25.20;;;16.27;;
32976;SDS011;67408;50.842;4.450;2023-02-15T17:21:53;23.77;;;15.70;;
32976;SDS011;67408;50.842;4.450;2023-02-15T17:24:42;22.90;;;15.20;;
32976;SDS011;67408;50.842;4.450;2023-02-15T17:27:15;23.40;;;15.10;;
32976;SDS011;67408;50.842;4.450;2023-02-15T17:29:48;27.98;;;16.70;;
32976;SDS011;67408;50.842;4.450;2023-02-15T17:32:20;22.42;;;14.60;;
32976;SDS011;67408;50.842;4.450;2023-02-15T17:39:55;23.80;;;16.65;;
32976;SDS011;67408;50.842;4.450;2023-02-15T17:42:22;24.15;;;16.52;;
32976;SDS011;67408;50.842;4.450;2023-02-15T17:44:48;23.85;;;15.52;;
32976;SDS011;67408;50.842;4.450;2023-02-15T17:47:17;23.67;;;16.60;;
32976;SDS011;67408;50.842;4.450;2023-02-15T17:49:46;21.30;;;15.32;;
32976;SDS011;67408;50.842;4.450;2023-02-15T17:52:14;23.08;;;16.08;;
32976;SDS011;67408;50.842;4.450;2023-02-15T17:54:42;23.13;;;16.23;;
32976;SDS011;67408;50.842;4.450;2023-02-15T17:57:26;26.88;;;16.35;;
32976;SDS011;67408;50.842;4.450;2023-02-15T17:59:53;24.77;;;15.88;;
32976;SDS011;67408;50.842;4.450;2023-02-15T18:02:37;24.73;;;16.60;;
32976;SDS011;67408;50.842;4.450;2023-02-15T18:05:22;24.17;;;16.55;;
32976;SDS011;67408;50.842;4.450;2023-02-15T18:08:12;23.58;;;16.60;;
32976;SDS011;67408;50.842;4.450;2023-02-15T18:10:58;24.00;;;16.45;;
32976;SDS011;67408;50.842;4.450;2023-02-15T18:13:43;21.88;;;15.95;;
32976;SDS011;67408;50.842;4.450;2023-02-15T18:16:11;24.75;;;16.50;;
32976;SDS011;67408;50.842;4.450;2023-02-15T18:18:42;23.65;;;16.23;;
32976;SDS011;67408;50.842;4.450;2023-02-15T18:21:09;24.00;;;15.88;;
32976;SDS011;67408;50.842;4.450;2023-02-15T18:23:36;28.02;;;17.40;;
32976;SDS011;67408;50.842;4.450;2023-02-15T18:26:02;26.48;;;16.38;;
32976;SDS011;67408;50.842;4.450;2023-02-15T18:28:27;22.45;;;16.30;;
32976;SDS011;67408;50.842;4.450;2023-02-15T18:30:53;31.52;;;16.85;;
32976;SDS011;67408;50.842;4.450;2023-02-15T18:33:24;25.13;;;16.92;;
32976;SDS011;67408;50.842;4.450;2023-02-15T18:36:13;23.10;;;16.38;;
32976;SDS011;67408;50.842;4.450;2023-02-15T18:38:46;25.52;;;16.50;;
32976;SDS011;67408;50.842;4.450;2023-02-15T18:41:15;25.95;;;16.55;;
32976;SDS011;67408;50.842;4.450;2023-02-15T18:43:43;25.90;;;16.60;;
32976;SDS011;67408;50.842;4.450;2023-02-15T18:46:09;23.38;;;15.82;;
32976;SDS011;67408;50.842;4.450;2023-02-15T18:48:35;24.27;;;15.18;;
32976;SDS011;67408;50.842;4.450;2023-02-15T18:51:01;23.05;;;15.10;;
32976;SDS011;67408;50.842;4.450;2023-02-15T18:53:27;28.17;;;16.67;;
32976;SDS011;67408;50.842;4.450;2023-02-15T18:55:52;23.42;;;15.95;;
32976;SDS011;67408;50.842;4.450;2023-02-15T18:58:19;23.85;;;16.20;;
32976;SDS011;67408;50.842;4.450;2023-02-15T19:00:46;25.38;;;15.90;;
32976;SDS011;67408;50.842;4.450;2023-02-15T19:03:14;24.20;;;16.92;;
32976;SDS011;67408;50.842;4.450;2023-02-15T19:05:41;24.42;;;16.92;;
32976;SDS011;67408;50.842;4.450;2023-02-15T19:08:19;24.73;;;16.55;;
32976;SDS011;67408;50.842;4.450;2023-02-15T19:10:48;22.50;;;16.17;;
32976;SDS011;67408;50.842;4.450;2023-02-15T19:13:15;24.55;;;16.52;;
32976;SDS011;67408;50.842;4.450;2023-02-15T19:15:42;27.40;;;17.30;;
32976;SDS011;67408;50.842;4.450;2023-02-15T19:18:08;27.38;;;18.60;;
32976;SDS011;67408;50.842;4.450;2023-02-15T19:20:38;25.63;;;17.33;;
32976;SDS011;67408;50.842;4.450;2023-02-15T19:23:07;27.27;;;17.88;;
32976;SDS011;67408;50.842;4.450;2023-02-15T19:25:39;26.10;;;17.50;;
32976;SDS011;67408;50.842;4.450;2023-02-15T19:28:16;25.83;;;17.02;;
32976;SDS011;67408;50.842;4.450;2023-02-15T19:30:43;26.15;;;16.90;;
32976;SDS011;67408;50.842;4.450;2023-02-15T19:33:13;25.52;;;18.40;;
32976;SDS011;67408;50.842;4.450;2023-02-15T19:35:48;24.25;;;17.00;;
32976;SDS011;67408;50.842;4.450;2023-02-15T19:38:18;28.35;;;17.48;;
32976;SDS011;67408;50.842;4.450;2023-02-15T19:40:46;26.65;;;17.20;;
32976;SDS011;67408;50.842;4.450;2023-02-15T19:43:16;25.58;;;16.73;;
32976;SDS011;67408;50.842;4.450;2023-02-15T19:45:43;25.10;;;16.25;;
32976;SDS011;67408;50.842;4.450;2023-02-15T19:48:10;29.02;;;17.98;;
32976;SDS011;67408;50.842;4.450;2023-02-15T19:50:37;27.20;;;17.17;;
32976;SDS011;67408;50.842;4.450;2023-02-15T19:53:03;33.72;;;17.52;;
32976;SDS011;67408;50.842;4.450;2023-02-15T19:55:32;25.63;;;17.17;;
32976;SDS011;67408;50.842;4.450;2023-02-15T19:57:59;24.83;;;16.77;;
32976;SDS011;67408;50.842;4.450;2023-02-15T20:00:27;24.73;;;15.90;;
32976;SDS011;67408;50.842;4.450;2023-02-15T20:02:57;23.65;;;16.58;;
32976;SDS011;67408;50.842;4.450;2023-02-15T20:05:24;24.00;;;16.55;;
32976;SDS011;67408;50.842;4.450;2023-02-15T20:07:51;24.20;;;16.98;;
32976;SDS011;67408;50.842;4.450;2023-02-15T20:10:18;25.85;;;15.75;;
32976;SDS011;67408;50.842;4.450;2023-02-15T20:12:48;23.45;;;16.00;;
32976;SDS011;67408;50.842;4.450;2023-02-15T20:17:44;25.45;;;16.33;;
32976;SDS011;67408;50.842;4.450;2023-02-15T20:20:10;41.33;;;17.00;;
32976;SDS011;67408;50.842;4.450;2023-02-15T20:22:37;37.28;;;16.67;;
32976;SDS011;67408;50.842;4.450;2023-02-15T20:25:04;29.58;;;17.15;;
32976;SDS011;67408;50.842;4.450;2023-02-15T20:27:30;44.80;;;18.17;;
32976;SDS011;67408;50.842;4.450;2023-02-15T20:29:57;25.60;;;15.95;;
32976;SDS011;67408;50.842;4.450;2023-02-15T20:32:22;47.42;;;16.75;;
32976;SDS011;67408;50.842;4.450;2023-02-15T20:34:48;35.10;;;17.27;;
32976;SDS011;67408;50.842;4.450;2023-02-15T20:37:19;36.47;;;16.70;;
32976;SDS011;67408;50.842;4.450;2023-02-15T20:39:47;40.53;;;17.30;;
32976;SDS011;67408;50.842;4.450;2023-02-15T20:42:14;30.58;;;17.75;;
32976;SDS011;67408;50.842;4.450;2023-02-15T20:44:40;33.17;;;18.05;;
32976;SDS011;67408;50.842;4.450;2023-02-15T20:47:05;36.15;;;18.63;;
32976;SDS011;67408;50.842;4.450;2023-02-15T20:49:31;44.85;;;18.48;;
